sim
Sign-in with your pilot id or email,
or register
Callsign
Passwort

Schedule Details

Flight Number: OEO3163
Departure: Paris Charles de Gaulle Airport (LFPG) at 15:00
Arrival: Munich Airport (EDDM) at 16:30

Weather Information
Getting current METAR information for LFPG 191300Z 12010KT 090V150 CAVOK 28/14 Q1013 NOSIG
Getting current METAR information for EDDM 191320Z 03005KT 340V100 CAVOK 21/11 Q1018 NOSIG

Schedule Frequency

Route Map